createdAt,value
2019-03-15T00:02:15.524Z,98.37
2019-03-15T00:05:06.098Z,98.81
2019-03-15T00:07:56.347Z,98.55
2019-03-15T00:10:46.416Z,98.22
2019-03-15T00:13:36.354Z,98.52
2019-03-15T00:16:26.620Z,98.73
2019-03-15T00:19:16.815Z,98.88
2019-03-15T00:22:08.631Z,98.56
2019-03-15T00:25:00.201Z,98.94
2019-03-15T00:27:50.382Z,99.19
2019-03-15T00:30:40.502Z,98.66
2019-03-15T00:33:30.550Z,97.92
2019-03-15T00:36:20.789Z,97.24
2019-03-15T00:39:11.439Z,97.36
2019-03-15T00:42:01.453Z,97.89
2019-03-15T00:44:51.727Z,97.81
2019-03-15T00:47:41.877Z,98.27
2019-03-15T00:50:31.973Z,98.08
2019-03-15T00:53:22.278Z,98.00
2019-03-15T00:56:12.750Z,99.27
2019-03-15T00:59:02.734Z,100.00
2019-03-15T01:01:52.703Z,100.00
2019-03-15T01:04:42.953Z,100.00
2019-03-15T01:07:33.341Z,100.00
2019-03-15T01:10:23.600Z,100.00
2019-03-15T01:13:13.621Z,100.00
2019-03-15T01:16:04.167Z,99.94
2019-03-15T01:18:54.190Z,99.89
2019-03-15T01:21:44.679Z,99.43
2019-03-15T01:24:34.819Z,99.43
2019-03-15T01:27:25.098Z,99.13
2019-03-15T01:30:15.092Z,99.53
2019-03-15T01:33:05.197Z,99.63
2019-03-15T01:35:55.486Z,99.31
2019-03-15T01:38:45.398Z,98.94
2019-03-15T01:41:38.214Z,99.27
2019-03-15T01:44:28.539Z,99.15
2019-03-15T01:47:19.045Z,100.00
2019-03-15T01:50:09.605Z,100.00
2019-03-15T01:53:02.348Z,100.00
2019-03-15T01:55:52.685Z,100.00
2019-03-15T01:58:43.157Z,100.00
2019-03-15T02:01:33.571Z,100.00
2019-03-15T02:04:24.169Z,100.00
2019-03-15T02:07:14.309Z,100.00
2019-03-15T02:10:04.864Z,100.00
2019-03-15T02:12:54.884Z,100.00
2019-03-15T02:15:45.458Z,100.00
2019-03-15T02:18:36.455Z,100.00
2019-03-15T02:21:26.763Z,100.00
2019-03-15T02:24:17.077Z,100.00
2019-03-15T02:27:07.275Z,100.00
2019-03-15T02:29:57.743Z,100.00
2019-03-15T02:32:48.169Z,100.00
2019-03-15T02:35:38.066Z,100.00
2019-03-15T02:38:28.426Z,100.00
2019-03-15T02:41:18.647Z,100.00
2019-03-15T02:44:08.915Z,100.00
2019-03-15T02:46:59.437Z,100.00
2019-03-15T02:49:49.703Z,100.00
2019-03-15T02:52:39.959Z,100.00
2019-03-15T02:55:30.550Z,100.00
2019-03-15T02:58:21.061Z,100.00
2019-03-15T03:01:11.436Z,100.00
2019-03-15T03:04:01.440Z,100.00
2019-03-15T03:06:51.755Z,100.00
2019-03-15T03:09:42.120Z,100.00
2019-03-15T03:12:32.396Z,99.56
2019-03-15T03:15:25.403Z,98.99
2019-03-15T03:18:15.699Z,98.24
2019-03-15T03:21:05.877Z,96.98
2019-03-15T03:23:57.328Z,96.91
2019-03-15T03:26:47.739Z,97.15
2019-03-15T03:29:40.873Z,97.20
2019-03-15T03:32:32.331Z,97.22
2019-03-15T03:35:22.580Z,97.58
2019-03-15T03:38:13.216Z,97.93
2019-03-15T03:41:03.550Z,98.48
2019-03-15T03:43:53.958Z,97.58
2019-03-15T03:46:44.018Z,98.10
2019-03-15T03:49:35.052Z,96.91
2019-03-15T03:52:25.611Z,97.20
2019-03-15T03:55:15.901Z,97.55
2019-03-15T03:58:07.106Z,97.13
2019-03-15T04:00:57.380Z,97.22
2019-03-15T04:03:47.784Z,97.02
2019-03-15T04:06:38.123Z,96.66
2019-03-15T04:09:28.358Z,96.57
2019-03-15T04:12:18.779Z,97.07
2019-03-15T04:15:10.503Z,97.28
2019-03-15T04:18:00.855Z,97.34
2019-03-15T04:20:50.840Z,97.08
2019-03-15T04:23:41.387Z,97.09
2019-03-15T04:26:31.704Z,98.29
2019-03-15T04:29:21.911Z,97.89
2019-03-15T04:32:12.151Z,98.88
2019-03-15T04:35:02.519Z,98.56
2019-03-15T04:37:52.704Z,99.32
2019-03-15T04:40:42.968Z,99.75
2019-03-15T04:43:33.539Z,100.00
2019-03-15T04:46:23.924Z,100.00
2019-03-15T04:49:14.086Z,100.00
2019-03-15T04:52:04.380Z,100.00
2019-03-15T04:54:54.724Z,100.00
2019-03-15T04:57:44.999Z,100.00
2019-03-15T05:00:35.493Z,99.67
2019-03-15T05:03:25.799Z,99.39
2019-03-15T05:06:16.125Z,98.53
2019-03-15T05:09:07.268Z,98.29
2019-03-15T05:11:57.543Z,98.55
2019-03-15T05:14:47.679Z,98.66
2019-03-15T05:17:38.250Z,98.55
2019-03-15T05:20:28.295Z,99.05
2019-03-15T05:23:18.324Z,99.41
2019-03-15T05:26:08.610Z,99.53
2019-03-15T05:28:58.578Z,99.31
2019-03-15T05:31:48.791Z,98.91
2019-03-15T05:34:39.144Z,99.04
2019-03-15T05:37:29.416Z,98.74
2019-03-15T05:40:19.675Z,98.47
2019-03-15T05:43:10.104Z,98.52
2019-03-15T05:46:00.451Z,98.97
2019-03-15T05:48:50.739Z,97.14
2019-03-15T05:51:40.800Z,95.90
2019-03-15T05:54:31.006Z,95.53
2019-03-15T05:57:21.308Z,96.03
2019-03-15T06:00:12.623Z,95.17
2019-03-15T06:03:04.098Z,95.06
2019-03-15T06:05:54.722Z,95.07
2019-03-15T06:08:45.081Z,93.77
2019-03-15T06:11:35.363Z,93.78
2019-03-15T06:14:25.765Z,93.72
2019-03-15T06:17:18.536Z,94.35
2019-03-15T06:20:09.393Z,93.89
2019-03-15T06:23:00.959Z,94.70
2019-03-15T06:25:51.543Z,94.87
2019-03-15T06:28:41.870Z,95.46
2019-03-15T06:31:32.142Z,95.74
2019-03-15T06:34:22.451Z,95.00
2019-03-15T06:37:12.899Z,94.52
2019-03-15T06:40:03.145Z,95.09
2019-03-15T06:42:56.006Z,95.90
2019-03-15T06:45:46.054Z,95.71
2019-03-15T06:48:36.674Z,96.15
2019-03-15T06:51:26.839Z,96.30
2019-03-15T06:54:17.305Z,96.18
2019-03-15T06:57:07.657Z,96.21
2019-03-15T06:59:59.556Z,96.19
2019-03-15T07:02:49.951Z,96.89
2019-03-15T07:05:41.321Z,97.05
2019-03-15T07:08:31.357Z,98.63
2019-03-15T07:11:21.488Z,98.33
2019-03-15T07:14:11.461Z,98.00
2019-03-15T07:17:02.140Z,97.16
2019-03-15T07:19:52.181Z,95.49
2019-03-15T07:22:42.538Z,95.46
2019-03-15T07:25:32.848Z,95.10
2019-03-15T07:28:23.732Z,96.36
2019-03-15T07:31:14.167Z,97.11
2019-03-15T07:34:04.810Z,96.51
2019-03-15T07:36:55.512Z,95.51
2019-03-15T07:39:46.872Z,93.25
2019-03-15T07:42:37.254Z,90.02
2019-03-15T07:45:28.982Z,88.44
2019-03-15T07:48:22.782Z,90.00
2019-03-15T07:51:10.969Z,92.92
2019-03-15T07:54:01.178Z,92.46
2019-03-15T07:56:51.463Z,94.90
2019-03-15T07:59:42.872Z,96.76
2019-03-15T08:02:33.078Z,98.91
2019-03-15T08:05:23.360Z,100.00
2019-03-15T08:08:14.031Z,100.00
2019-03-15T08:11:04.210Z,98.39
2019-03-15T08:13:54.645Z,97.99
2019-03-15T08:16:44.849Z,96.96
2019-03-15T08:19:35.103Z,98.00
2019-03-15T08:22:25.413Z,97.75
2019-03-15T08:25:15.645Z,97.64
2019-03-15T08:28:05.765Z,97.45
2019-03-15T08:30:56.087Z,97.50
2019-03-15T08:33:46.097Z,97.61
2019-03-15T08:36:36.912Z,98.80
2019-03-15T08:39:27.300Z,98.40
2019-03-15T08:42:17.359Z,98.72
2019-03-15T08:45:09.846Z,98.10
2019-03-15T08:48:00.026Z,97.60
2019-03-15T08:50:50.229Z,95.57
2019-03-15T08:53:43.503Z,95.46
2019-03-15T08:56:33.765Z,97.00
2019-03-15T08:59:24.076Z,96.47
2019-03-15T09:02:14.728Z,95.11
2019-03-15T09:05:05.571Z,94.83
2019-03-15T09:07:55.543Z,92.25
2019-03-15T09:10:46.054Z,92.53
2019-03-15T09:13:36.379Z,92.70
2019-03-15T09:16:26.951Z,93.58
2019-03-15T09:19:17.351Z,93.20
2019-03-15T09:22:07.769Z,91.62
2019-03-15T09:24:58.080Z,91.48
2019-03-15T09:27:48.692Z,91.30
2019-03-15T09:30:38.973Z,91.54
2019-03-15T09:33:28.966Z,90.52
2019-03-15T09:36:19.226Z,90.74
2019-03-15T09:39:10.436Z,89.75
2019-03-15T09:42:03.390Z,89.04
2019-03-15T09:44:53.502Z,89.22
2019-03-15T09:47:43.829Z,87.86
2019-03-15T09:50:50.067Z,87.87
2019-03-15T09:53:26.660Z,89.48
2019-03-15T09:56:17.078Z,83.11
2019-03-15T09:59:07.669Z,84.74
2019-03-15T10:01:58.298Z,81.58
2019-03-15T10:04:48.325Z,79.17
2019-03-15T10:07:42.764Z,79.08
2019-03-15T10:10:30.531Z,75.55
2019-03-15T10:13:20.606Z,74.40
2019-03-15T10:16:10.853Z,73.03
2019-03-15T10:19:01.203Z,70.13
2019-03-15T10:21:51.512Z,65.45
2019-03-15T10:24:42.420Z,71.49
2019-03-15T10:27:32.925Z,70.19
2019-03-15T10:30:23.666Z,66.49
2019-03-15T10:33:13.769Z,64.70
2019-03-15T10:36:03.923Z,67.44
2019-03-15T10:38:54.303Z,69.43
2019-03-15T10:41:44.492Z,64.66
2019-03-15T10:44:34.500Z,64.92
2019-03-15T10:47:24.874Z,66.08
2019-03-15T10:50:15.096Z,65.01
2019-03-15T10:53:05.298Z,62.05
2019-03-15T10:56:00.537Z,61.45
2019-03-15T10:58:47.505Z,57.48
2019-03-15T11:01:40.580Z,58.98
2019-03-15T11:04:30.875Z,55.66
2019-03-15T11:07:20.892Z,56.12
2019-03-15T11:10:11.212Z,53.13
2019-03-15T11:13:01.841Z,55.49
2019-03-15T11:15:52.327Z,51.88
2019-03-15T11:18:42.526Z,52.33
2019-03-15T11:21:32.558Z,53.30
2019-03-15T11:24:22.783Z,54.64
2019-03-15T11:27:13.167Z,56.03
2019-03-15T11:30:03.390Z,57.26
2019-03-15T11:32:56.584Z,55.92
2019-03-15T11:35:47.096Z,54.80
2019-03-15T11:38:37.358Z,54.07
2019-03-15T11:41:27.734Z,53.46
2019-03-15T11:44:17.789Z,53.08
2019-03-15T11:47:08.098Z,57.08
2019-03-15T11:49:58.851Z,58.26
2019-03-15T11:52:48.830Z,58.60
2019-03-15T11:55:39.654Z,56.39
2019-03-15T11:58:29.905Z,58.92
2019-03-15T12:01:20.049Z,55.67
2019-03-15T12:04:10.223Z,53.06
2019-03-15T12:07:00.851Z,55.68
2019-03-15T12:09:51.337Z,54.93
2019-03-15T12:12:41.999Z,55.38
2019-03-15T12:15:32.169Z,55.21
2019-03-15T12:18:22.157Z,54.28
2019-03-15T12:21:12.546Z,54.23
2019-03-15T12:24:02.809Z,55.50
2019-03-15T12:26:53.053Z,57.35
2019-03-15T12:29:43.130Z,54.64
2019-03-15T12:32:37.842Z,54.10
2019-03-15T12:35:29.590Z,56.78
2019-03-15T12:38:19.564Z,58.96
2019-03-15T12:41:09.807Z,61.42
2019-03-15T12:44:00.194Z,58.76
2019-03-15T12:46:50.899Z,57.42
2019-03-15T12:49:41.247Z,57.37
2019-03-15T12:52:45.901Z,59.94
2019-03-15T12:55:24.901Z,61.37
2019-03-15T12:58:15.437Z,64.06
2019-03-15T13:01:05.617Z,62.82
2019-03-15T13:03:55.899Z,57.38
2019-03-15T13:06:46.082Z,59.82
2019-03-15T13:09:36.526Z,53.74
2019-03-15T13:12:26.829Z,52.24
2019-03-15T13:15:17.047Z,51.55
2019-03-15T13:18:07.374Z,52.87
2019-03-15T13:20:58.123Z,55.44
2019-03-15T13:23:49.756Z,55.83
2019-03-15T13:26:40.298Z,53.47
2019-03-15T13:29:30.589Z,52.04
2019-03-15T13:32:20.856Z,50.53
2019-03-15T13:35:11.306Z,51.13
2019-03-15T13:38:04.453Z,52.48
2019-03-15T13:40:54.586Z,55.89
2019-03-15T13:43:44.655Z,57.61
2019-03-15T13:46:34.891Z,59.70
2019-03-15T13:49:25.224Z,59.27
2019-03-15T13:52:15.541Z,58.01
2019-03-15T13:55:07.123Z,57.09
2019-03-15T13:57:57.538Z,57.39
2019-03-15T14:00:47.968Z,57.77
2019-03-15T14:03:38.372Z,54.65
2019-03-15T14:06:28.515Z,54.67
2019-03-15T14:09:18.603Z,55.31
2019-03-15T14:12:08.763Z,51.52
2019-03-15T14:14:59.253Z,52.78
2019-03-15T14:17:49.605Z,51.09
2019-03-15T14:20:39.892Z,50.48
2019-03-15T14:23:30.236Z,50.18
2019-03-15T14:26:20.495Z,51.15
2019-03-15T14:29:11.369Z,49.07
2019-03-15T14:32:01.765Z,49.22
2019-03-15T14:34:52.081Z,47.87
2019-03-15T14:37:42.246Z,49.11
2019-03-15T14:40:32.867Z,47.36
2019-03-15T14:43:23.032Z,49.37
2019-03-15T14:46:13.134Z,50.83
2019-03-15T14:49:03.412Z,50.48
2019-03-15T14:51:53.570Z,49.39
2019-03-15T14:54:43.922Z,50.42
2019-03-15T14:57:34.652Z,50.83
2019-03-15T15:00:25.082Z,49.76
2019-03-15T15:03:15.413Z,48.99
2019-03-15T15:06:05.626Z,50.99
2019-03-15T15:08:55.843Z,50.20
2019-03-15T15:11:45.854Z,51.58
2019-03-15T15:14:36.528Z,49.23
2019-03-15T15:17:26.830Z,49.96
2019-03-15T15:20:16.989Z,49.86
2019-03-15T15:23:07.290Z,48.74
2019-03-15T15:25:57.507Z,47.97
2019-03-15T15:28:47.820Z,48.76
2019-03-15T15:31:38.125Z,47.90
2019-03-15T15:34:28.279Z,48.94
2019-03-15T15:37:18.404Z,48.65
2019-03-15T15:40:09.722Z,48.48
2019-03-15T15:42:59.944Z,48.33
2019-03-15T15:45:50.273Z,48.68
2019-03-15T15:48:40.393Z,48.10
2019-03-15T15:51:30.764Z,49.54
2019-03-15T15:54:21.482Z,49.26
2019-03-15T15:57:12.870Z,50.03
2019-03-15T16:00:04.257Z,49.25
2019-03-15T16:02:54.663Z,49.20
2019-03-15T16:05:45.237Z,48.87
2019-03-15T16:08:35.127Z,48.30
2019-03-15T16:11:25.461Z,48.48
2019-03-15T16:14:15.658Z,48.31
2019-03-15T16:17:05.666Z,48.89
2019-03-15T16:19:55.657Z,49.67
2019-03-15T16:22:46.227Z,49.66
2019-03-15T16:25:36.570Z,49.33
2019-03-15T16:28:31.725Z,49.87
2019-03-15T16:31:19.176Z,50.24
2019-03-15T16:34:09.423Z,50.20
2019-03-15T16:36:59.653Z,48.94
2019-03-15T16:39:49.739Z,48.88
2019-03-15T16:42:40.073Z,49.76
2019-03-15T16:45:30.370Z,50.27
2019-03-15T16:48:20.646Z,50.28
2019-03-15T16:51:19.499Z,49.32
2019-03-15T16:54:02.890Z,50.14
2019-03-15T16:56:53.247Z,49.95
2019-03-15T16:59:43.569Z,50.58
2019-03-15T17:02:34.511Z,50.75
2019-03-15T17:05:24.557Z,48.82
2019-03-15T17:08:14.610Z,50.16
2019-03-15T17:11:04.830Z,50.69
2019-03-15T17:13:54.906Z,52.55
2019-03-15T17:16:45.126Z,54.06
2019-03-15T17:19:35.338Z,54.71
2019-03-15T17:22:25.693Z,50.63
2019-03-15T17:25:15.970Z,50.42
2019-03-15T17:28:06.336Z,51.24
2019-03-15T17:31:09.137Z,51.12
2019-03-15T17:33:48.930Z,50.16
2019-03-15T17:36:39.447Z,50.20
2019-03-15T17:39:30.713Z,49.56
2019-03-15T17:42:21.169Z,48.23
2019-03-15T17:45:11.620Z,48.24
2019-03-15T17:48:02.350Z,47.63
2019-03-15T17:50:52.310Z,47.56
2019-03-15T17:53:42.619Z,47.93
2019-03-15T17:56:33.152Z,46.94
2019-03-15T17:59:23.425Z,47.00
2019-03-15T18:02:13.503Z,46.03
2019-03-15T18:05:04.508Z,45.29
2019-03-15T18:07:55.405Z,45.84
2019-03-15T18:10:45.654Z,45.92
2019-03-15T18:13:36.104Z,46.09
2019-03-15T18:16:26.693Z,46.48
2019-03-15T18:19:16.731Z,46.42
2019-03-15T18:22:07.302Z,56.71
2019-03-15T18:24:57.220Z,57.79
2019-03-15T18:27:47.313Z,56.57
2019-03-15T18:30:37.911Z,50.24
2019-03-15T18:33:30.780Z,48.45
2019-03-15T18:36:21.065Z,51.38
2019-03-15T18:39:11.466Z,51.31
2019-03-15T18:42:01.934Z,51.32
2019-03-15T18:44:52.458Z,51.45
2019-03-15T18:47:42.629Z,50.68
2019-03-15T18:50:32.845Z,49.64
2019-03-15T18:53:23.202Z,50.01
2019-03-15T18:56:13.353Z,50.26
2019-03-15T18:59:03.744Z,50.19
2019-03-15T19:01:53.960Z,51.27
2019-03-15T19:04:44.162Z,51.66
2019-03-15T19:07:34.844Z,51.57
2019-03-15T19:10:25.020Z,52.35
2019-03-15T19:13:15.650Z,53.07
2019-03-15T19:16:19.331Z,53.88
2019-03-15T19:18:57.685Z,55.42
2019-03-15T19:21:47.937Z,56.82
2019-03-15T19:24:38.476Z,56.58
2019-03-15T19:27:28.432Z,56.64
2019-03-15T19:30:18.517Z,57.71
2019-03-15T19:33:08.713Z,56.42
2019-03-15T19:35:58.908Z,56.54
2019-03-15T19:38:49.042Z,55.60
2019-03-15T19:41:39.637Z,56.41
2019-03-15T19:44:29.968Z,57.79
2019-03-15T19:47:20.018Z,57.35
2019-03-15T19:50:12.389Z,55.33
2019-03-15T19:53:02.489Z,55.08
2019-03-15T19:55:52.788Z,56.29
2019-03-15T19:58:42.987Z,55.52
2019-03-15T20:01:34.220Z,55.37
2019-03-15T20:04:24.740Z,54.81
2019-03-15T20:07:14.798Z,55.23
2019-03-15T20:10:05.089Z,55.14
2019-03-15T20:12:56.688Z,58.09
2019-03-15T20:15:47.199Z,58.32
2019-03-15T20:18:37.652Z,57.33
2019-03-15T20:21:27.852Z,57.80
2019-03-15T20:24:18.153Z,58.08
2019-03-15T20:27:08.545Z,57.51
2019-03-15T20:29:58.980Z,58.92
2019-03-15T20:32:49.385Z,58.92
2019-03-15T20:35:39.632Z,57.88
2019-03-15T20:38:29.668Z,55.22
2019-03-15T20:41:19.946Z,55.77
2019-03-15T20:44:11.452Z,57.36
2019-03-15T20:47:03.693Z,56.44
2019-03-15T20:49:54.261Z,57.87
2019-03-15T20:52:44.657Z,56.14
2019-03-15T20:55:35.136Z,56.31
2019-03-15T20:58:25.268Z,58.05
2019-03-15T21:01:15.433Z,59.25
2019-03-15T21:04:05.831Z,59.83
2019-03-15T21:06:58.880Z,60.64
2019-03-15T21:09:49.231Z,63.11
2019-03-15T21:12:40.495Z,63.84
2019-03-15T21:15:30.737Z,65.49
2019-03-15T21:18:20.770Z,65.64
2019-03-15T21:21:11.046Z,67.37
2019-03-15T21:24:01.478Z,67.82
2019-03-15T21:26:51.820Z,67.58
2019-03-15T21:29:42.166Z,67.84
2019-03-15T21:32:32.393Z,67.83
2019-03-15T21:35:22.640Z,67.73
2019-03-15T21:38:12.708Z,68.71
2019-03-15T21:41:02.787Z,68.62
2019-03-15T21:43:53.073Z,68.79
2019-03-15T21:46:43.484Z,70.91
2019-03-15T21:49:36.376Z,72.59
2019-03-15T21:52:28.185Z,73.53
2019-03-15T21:55:18.271Z,74.61
2019-03-15T21:58:08.642Z,74.83
2019-03-15T22:01:02.731Z,75.28
2019-03-15T22:03:50.833Z,75.58
2019-03-15T22:06:41.199Z,75.37
2019-03-15T22:09:31.567Z,75.55
2019-03-15T22:12:21.616Z,75.32
2019-03-15T22:15:11.651Z,72.37
2019-03-15T22:18:01.927Z,71.04
2019-03-15T22:20:52.149Z,70.82
2019-03-15T22:23:42.410Z,68.72
2019-03-15T22:26:33.184Z,66.92
2019-03-15T22:29:23.508Z,64.00
2019-03-15T22:32:13.765Z,62.60
2019-03-15T22:35:04.194Z,61.67
2019-03-15T22:37:54.233Z,62.07
2019-03-15T22:40:44.685Z,61.94
2019-03-15T22:43:35.073Z,60.79
2019-03-15T22:46:26.421Z,59.46
2019-03-15T22:49:16.475Z,57.62
2019-03-15T22:52:07.096Z,57.20
2019-03-15T22:54:57.396Z,58.33
2019-03-15T22:57:59.261Z,57.82
2019-03-15T23:00:39.672Z,58.12
2019-03-15T23:03:34.393Z,57.21
2019-03-15T23:06:24.854Z,57.31
2019-03-15T23:09:15.218Z,55.03
2019-03-15T23:12:06.701Z,54.60
2019-03-15T23:14:57.184Z,54.96
2019-03-15T23:17:47.711Z,55.04
2019-03-15T23:20:37.980Z,55.55
2019-03-15T23:23:28.233Z,56.26
2019-03-15T23:26:18.836Z,54.33
2019-03-15T23:29:09.284Z,53.84
2019-03-15T23:31:59.838Z,52.84
2019-03-15T23:34:49.837Z,52.83
2019-03-15T23:37:40.120Z,52.56
2019-03-15T23:40:30.199Z,51.49
2019-03-15T23:43:20.677Z,50.51
2019-03-15T23:46:11.195Z,49.83
2019-03-15T23:49:01.536Z,49.15
2019-03-15T23:51:51.806Z,48.69
2019-03-15T23:54:42.108Z,48.77
2019-03-15T23:57:32.530Z,48.70
